Time;durP1;ratioP1;P1;durP2;ratioP2;P2;SDS_P1;SDS_P2;PMS_P1;PMS_P2;Temp;Humidity;BMP_temperature;BMP_pressure;BME280_temperature;BME280_humidity;BME280_pressure;Samples;Min_cycle;Max_cycle;Signal;HPM_P1;HPM_P2
2023/08/04 00:00:46;;;;;;;3.38;1.67;;;19.30;86.80;;;;;;5062590;28;20056;-80
2023/08/04 00:03:12;;;;;;;0.98;0.90;;;19.30;86.80;;;;;;5071764;28;20385;-80
2023/08/04 00:05:37;;;;;;;1.95;1.02;;;19.30;86.90;;;;;;5067122;28;20025;-80
2023/08/04 00:08:03;;;;;;;1.65;0.70;;;19.30;86.80;;;;;;5070151;28;20032;-80
2023/08/04 00:10:28;;;;;;;3.58;1.00;;;19.30;86.90;;;;;;5067062;28;20500;-81
2023/08/04 00:12:54;;;;;;;1.85;0.75;;;19.30;86.90;;;;;;5066958;28;20034;-80
2023/08/04 00:15:20;;;;;;;3.80;0.80;;;19.30;87.00;;;;;;5063564;28;20521;-80
2023/08/04 00:17:45;;;;;;;1.88;0.80;;;19.30;86.90;;;;;;5068460;28;20021;-80
2023/08/04 00:20:11;;;;;;;0.90;0.60;;;19.30;86.90;;;;;;5069351;28;20035;-80
2023/08/04 00:22:37;;;;;;;1.35;0.80;;;19.30;87.00;;;;;;5097506;27;20024;-80
2023/08/04 00:25:04;;;;;;;1.90;1.00;;;19.30;87.00;;;;;;5068821;28;20028;-80
2023/08/04 00:27:29;;;;;;;1.92;0.73;;;19.30;87.00;;;;;;5065407;28;20111;-80
2023/08/04 00:29:55;;;;;;;3.55;0.70;;;19.30;87.10;;;;;;5068989;28;20116;-80
2023/08/04 00:32:21;;;;;;;3.45;0.80;;;19.30;87.10;;;;;;5063498;28;20607;-80
2023/08/04 00:34:47;;;;;;;1.25;0.95;;;19.30;87.20;;;;;;5098646;28;20485;-80
2023/08/04 00:37:12;;;;;;;0.75;0.60;;;19.30;87.20;;;;;;5063142;28;20021;-80
2023/08/04 00:39:38;;;;;;;1.02;0.70;;;19.30;87.20;;;;;;5075549;28;20020;-79
2023/08/04 00:42:04;;;;;;;1.88;1.00;;;19.30;87.20;;;;;;5065381;28;20025;-79
2023/08/04 00:44:30;;;;;;;1.60;1.00;;;19.30;87.20;;;;;;5066697;28;20032;-80
2023/08/04 00:46:56;;;;;;;1.08;0.80;;;19.30;87.20;;;;;;5065946;28;20029;-80
2023/08/04 00:49:22;;;;;;;0.80;0.80;;;19.30;87.20;;;;;;5070092;28;20567;-80
2023/08/04 00:51:48;;;;;;;1.02;0.82;;;19.30;87.20;;;;;;5066794;28;20025;-80
2023/08/04 00:54:13;;;;;;;1.95;0.77;;;19.20;87.10;;;;;;5065124;28;20025;-80
2023/08/04 00:56:39;;;;;;;4.88;0.80;;;19.30;87.20;;;;;;5065885;28;20107;-80
2023/08/04 00:59:05;;;;;;;3.45;0.80;;;19.30;87.20;;;;;;5067773;28;20031;-80
2023/08/04 01:01:31;;;;;;;1.10;0.90;;;19.30;87.20;;;;;;5066162;28;20023;-80
2023/08/04 01:03:58;;;;;;;1.83;0.70;;;19.20;87.20;;;;;;5066012;28;20381;-80
2023/08/04 01:06:35;;;;;;;3.33;0.70;;;19.20;87.20;;;;;;5069844;28;20469;-80
2023/08/04 01:09:09;;;;;;;3.40;1.00;;;19.20;87.10;;;;;;5096063;27;20036;-80
2023/08/04 01:11:42;;;;;;;5.90;1.20;;;19.30;88.00;;;;;;5063167;28;20021;-80
2023/08/04 01:14:09;;;;;;;2.15;1.20;;;19.20;87.20;;;;;;5065582;28;20116;-80
2023/08/04 01:16:35;;;;;;;1.70;1.30;;;19.20;87.20;;;;;;5073749;28;20116;-80
2023/08/04 01:19:01;;;;;;;3.10;1.10;;;19.20;87.20;;;;;;5065370;28;20489;-80
2023/08/04 01:21:27;;;;;;;2.03;1.20;;;19.30;87.30;;;;;;5068033;28;20024;-80
2023/08/04 01:23:53;;;;;;;1.40;0.80;;;19.20;87.20;;;;;;5060053;28;20021;-80
2023/08/04 01:26:20;;;;;;;4.18;0.88;;;19.20;87.20;;;;;;5061612;28;20029;-80
2023/08/04 01:28:47;;;;;;;2.85;1.02;;;19.30;87.30;;;;;;5060484;28;20037;-80
2023/08/04 01:31:13;;;;;;;1.60;0.95;;;19.20;87.30;;;;;;5069803;28;20039;-80
2023/08/04 01:33:39;;;;;;;5.53;0.90;;;19.20;88.00;;;;;;5065688;28;20631;-80
2023/08/04 01:36:04;;;;;;;1.80;0.98;;;19.30;87.30;;;;;;5071594;28;20028;-80
2023/08/04 01:38:30;;;;;;;0.70;0.70;;;19.20;87.20;;;;;;5061310;28;20016;-80
2023/08/04 01:40:55;;;;;;;2.65;0.80;;;19.20;87.20;;;;;;5067032;28;20029;-80
2023/08/04 01:43:22;;;;;;;1.55;0.73;;;19.20;87.20;;;;;;5063778;28;20020;-81
2023/08/04 01:45:48;;;;;;;1.23;0.88;;;19.20;87.20;;;;;;5096896;28;20067;-80
2023/08/04 01:48:13;;;;;;;1.02;0.70;;;19.20;87.20;;;;;;5072631;28;20021;-80
2023/08/04 01:50:39;;;;;;;0.90;0.80;;;19.20;87.20;;;;;;5066103;28;20447;-81
2023/08/04 01:53:04;;;;;;;2.65;0.80;;;19.20;87.20;;;;;;5063592;28;20098;-81
2023/08/04 01:55:30;;;;;;;1.52;0.60;;;19.20;87.20;;;;;;5061187;28;20073;-81
2023/08/04 01:57:56;;;;;;;1.75;1.27;;;19.20;87.20;;;;;;5056533;28;20101;-81
2023/08/04 02:00:21;;;;;;;1.23;0.68;;;19.20;87.20;;;;;;5070251;28;20031;-80
2023/08/04 02:02:47;;;;;;;1.38;0.82;;;19.20;87.30;;;;;;5074741;28;20053;-80
2023/08/04 02:05:13;;;;;;;1.58;0.80;;;19.20;87.30;;;;;;5072070;28;20033;-80
2023/08/04 02:07:39;;;;;;;0.90;0.70;;;19.20;87.30;;;;;;5070394;28;20105;-80
2023/08/04 02:10:05;;;;;;;1.45;0.65;;;19.20;87.30;;;;;;5066575;28;20059;-80
2023/08/04 02:12:31;;;;;;;4.07;0.90;;;19.20;87.30;;;;;;5064761;28;20072;-80
2023/08/04 02:14:56;;;;;;;3.88;1.00;;;19.20;87.30;;;;;;5063901;28;20040;-80
2023/08/04 02:17:22;;;;;;;2.67;0.75;;;19.20;87.30;;;;;;5075286;28;20024;-80
2023/08/04 02:19:48;;;;;;;2.03;0.90;;;19.20;87.30;;;;;;5072461;28;20085;-80
2023/08/04 02:22:13;;;;;;;4.35;0.80;;;19.20;87.30;;;;;;5062357;28;21021;-80
2023/08/04 02:24:39;;;;;;;5.45;1.05;;;19.20;87.30;;;;;;5073249;28;20039;-80
2023/08/04 02:27:06;;;;;;;7.22;0.88;;;19.20;87.30;;;;;;5066619;28;20020;-80
2023/08/04 02:29:31;;;;;;;2.58;0.75;;;19.20;87.30;;;;;;5066537;28;20062;-80
2023/08/04 02:31:57;;;;;;;0.50;0.50;;;19.20;87.30;;;;;;5070029;28;20040;-80
2023/08/04 02:34:22;;;;;;;2.00;0.70;;;19.20;87.40;;;;;;5075817;28;20028;-80
2023/08/04 02:36:48;;;;;;;1.25;0.77;;;19.20;87.40;;;;;;5070371;28;20028;-80
2023/08/04 02:39:14;;;;;;;1.98;0.60;;;19.20;87.50;;;;;;5064834;28;20112;-80
2023/08/04 02:41:39;;;;;;;0.60;0.60;;;19.20;87.50;;;;;;5071118;28;20708;-80
2023/08/04 02:44:06;;;;;;;4.43;0.90;;;19.20;87.50;;;;;;5070596;28;20067;-80
2023/08/04 02:46:32;;;;;;;1.02;0.75;;;19.20;87.50;;;;;;5072092;28;20052;-80
2023/08/04 02:48:57;;;;;;;3.40;0.60;;;19.20;87.60;;;;;;5068738;28;20075;-80
2023/08/04 02:51:23;;;;;;;4.90;0.73;;;19.20;87.60;;;;;;5072993;28;20044;-80
2023/08/04 02:53:49;;;;;;;2.03;0.80;;;19.20;87.60;;;;;;5068024;28;20064;-80
2023/08/04 02:56:18;;;;;;;1.33;0.85;;;19.10;87.60;;;;;;5066037;28;20385;-80
2023/08/04 02:58:46;;;;;;;2.78;1.13;;;19.20;87.70;;;;;;5064786;28;20389;-80
2023/08/04 03:01:12;;;;;;;2.05;0.70;;;19.20;87.70;;;;;;5069794;28;20394;-80
2023/08/04 03:03:39;;;;;;;1.20;0.63;;;19.20;87.70;;;;;;5070363;28;20058;-80
2023/08/04 03:06:05;;;;;;;3.60;0.80;;;19.20;87.80;;;;;;5069913;28;20025;-80
2023/08/04 03:08:33;;;;;;;4.38;0.85;;;19.20;87.80;;;;;;5070707;28;21024;-80
2023/08/04 03:10:59;;;;;;;1.55;0.50;;;19.20;88.50;;;;;;5096645;27;20520;-80
2023/08/04 03:13:25;;;;;;;2.22;0.60;;;19.20;87.80;;;;;;5067542;28;20060;-80
2023/08/04 03:16:09;;;;;;;0.73;0.73;;;19.10;87.70;;;;;;5068689;28;20032;-80
2023/08/04 03:18:34;;;;;;;4.95;0.82;;;19.20;87.80;;;;;;5068627;28;20025;-80
2023/08/04 03:21:02;;;;;;;1.92;0.95;;;19.20;87.90;;;;;;5067045;28;20389;-80
2023/08/04 03:23:28;;;;;;;3.45;0.80;;;19.10;87.80;;;;;;5073454;28;20562;-80
2023/08/04 03:25:53;;;;;;;5.07;1.20;;;19.20;87.80;;;;;;5066883;28;20030;-80
2023/08/04 03:28:19;;;;;;;6.18;1.00;;;19.10;87.80;;;;;;5068012;28;20115;-81
2023/08/04 03:30:44;;;;;;;5.70;0.95;;;19.10;87.90;;;;;;5107200;27;20043;-80
2023/08/04 03:33:10;;;;;;;3.45;1.20;;;19.10;87.80;;;;;;5067336;28;20037;-80
2023/08/04 03:35:36;;;;;;;5.30;0.80;;;19.10;87.80;;;;;;5068134;28;20024;-80
2023/08/04 03:38:04;;;;;;;6.65;0.80;;;19.20;87.80;;;;;;5069273;28;20032;-80
2023/08/04 03:40:29;;;;;;;3.65;1.02;;;19.10;87.80;;;;;;5069283;28;20103;-81
2023/08/04 03:42:55;;;;;;;1.27;1.00;;;19.10;87.80;;;;;;5066104;28;20150;-81
2023/08/04 03:45:21;;;;;;;2.22;0.73;;;19.10;87.80;;;;;;5071446;28;20557;-80
2023/08/04 03:47:46;;;;;;;3.85;0.75;;;19.10;87.80;;;;;;5070431;28;20039;-81
2023/08/04 03:50:12;;;;;;;2.55;1.10;;;19.20;87.90;;;;;;5066866;28;20549;-80
2023/08/04 03:52:37;;;;;;;1.98;0.93;;;19.10;87.80;;;;;;5064562;28;20095;-81
2023/08/04 03:55:05;;;;;;;2.90;0.73;;;19.10;87.90;;;;;;5068222;28;20063;-80
2023/08/04 03:57:31;;;;;;;1.27;0.70;;;19.10;88.60;;;;;;5068641;28;20062;-81
2023/08/04 03:59:57;;;;;;;1.52;0.68;;;19.10;87.90;;;;;;5076705;28;20024;-81
2023/08/04 04:02:22;;;;;;;2.05;1.15;;;19.10;87.90;;;;;;5072351;28;20512;-80
2023/08/04 04:04:48;;;;;;;1.42;0.90;;;19.10;88.00;;;;;;5067555;28;20503;-80
2023/08/04 04:07:13;;;;;;;1.95;0.98;;;19.10;88.00;;;;;;5061615;28;20017;-80
2023/08/04 04:09:39;;;;;;;2.17;1.02;;;19.10;88.00;;;;;;5062307;28;20037;-80
2023/08/04 04:12:05;;;;;;;1.77;1.00;;;19.10;88.00;;;;;;5065302;28;20028;-80
2023/08/04 04:14:30;;;;;;;2.10;0.73;;;19.10;88.00;;;;;;5064485;28;20029;-80
2023/08/04 04:16:56;;;;;;;3.20;1.13;;;19.10;88.10;;;;;;5072999;28;20016;-80
2023/08/04 04:19:21;;;;;;;1.52;1.30;;;19.10;88.10;;;;;;5066040;28;20358;-80
2023/08/04 04:21:47;;;;;;;1.83;0.80;;;19.10;88.10;;;;;;5068082;28;20064;-80
2023/08/04 04:24:13;;;;;;;5.40;1.13;;;19.10;88.10;;;;;;5067761;28;20170;-80
2023/08/04 04:26:38;;;;;;;1.38;0.70;;;19.10;88.20;;;;;;5054069;28;20025;-80
2023/08/04 04:29:04;;;;;;;3.00;0.68;;;19.10;88.20;;;;;;5071051;28;20039;-81
2023/08/04 04:31:29;;;;;;;1.63;1.00;;;19.10;89.00;;;;;;5072282;28;20027;-80
2023/08/04 04:33:55;;;;;;;2.58;0.80;;;19.10;88.30;;;;;;5074502;28;20123;-81
2023/08/04 04:36:21;;;;;;;2.25;0.80;;;19.10;88.30;;;;;;5064693;28;20028;-80
2023/08/04 04:38:46;;;;;;;2.78;1.15;;;19.10;88.30;;;;;;5063867;28;20138;-80
2023/08/04 04:41:12;;;;;;;1.77;0.70;;;19.10;88.30;;;;;;5062545;28;20100;-80
2023/08/04 04:43:37;;;;;;;1.10;0.75;;;19.10;88.30;;;;;;5066223;28;20397;-80
2023/08/04 04:46:03;;;;;;;10.20;1.08;;;19.10;88.40;;;;;;5070842;28;20024;-80
2023/08/04 04:48:29;;;;;;;5.38;0.80;;;19.10;88.40;;;;;;5071452;28;20021;-79
2023/08/04 04:50:55;;;;;;;3.20;1.05;;;19.10;88.40;;;;;;5068134;28;20051;-80
2023/08/04 04:53:21;;;;;;;3.13;1.10;;;19.00;88.10;;;;;;5066816;28;20029;-80
2023/08/04 04:55:47;;;;;;;1.92;1.10;;;19.10;88.20;;;;;;5063080;28;20028;-80
2023/08/04 04:58:12;;;;;;;3.90;0.90;;;19.10;88.30;;;;;;5066288;28;20020;-80
2023/08/04 05:00:38;;;;;;;1.67;0.80;;;19.00;88.20;;;;;;5071918;28;20095;-80
2023/08/04 05:03:06;;;;;;;0.88;0.82;;;19.10;88.30;;;;;;5072683;28;20032;-80
2023/08/04 05:05:32;;;;;;;1.52;0.90;;;19.10;88.30;;;;;;5063471;28;20095;-80
2023/08/04 05:07:58;;;;;;;8.07;1.58;;;19.10;88.30;;;;;;5066214;28;20024;-80
2023/08/04 05:10:25;;;;;;;1.90;0.90;;;19.10;88.40;;;;;;5060423;28;20108;-80
2023/08/04 05:12:51;;;;;;;1.45;0.98;;;19.10;88.40;;;;;;5061091;28;20025;-80
2023/08/04 05:15:16;;;;;;;1.85;0.88;;;19.10;88.40;;;;;;5098172;27;20030;-80
2023/08/04 05:17:42;;;;;;;5.90;1.13;;;19.10;88.40;;;;;;5073539;28;20055;-80
2023/08/04 05:20:08;;;;;;;1.35;1.00;;;19.10;88.40;;;;;;5072224;28;20484;-79
2023/08/04 05:22:34;;;;;;;18.00;1.30;;;19.10;88.50;;;;;;5068211;28;20434;-80
2023/08/04 05:24:59;;;;;;;3.33;1.50;;;19.10;88.60;;;;;;5063528;28;20103;-80
2023/08/04 05:27:25;;;;;;;6.35;1.20;;;19.10;88.60;;;;;;5056360;28;20421;-80
2023/08/04 05:29:50;;;;;;;1.45;0.77;;;19.10;88.60;;;;;;5061713;28;20044;-80
2023/08/04 05:32:16;;;;;;;3.33;1.42;;;19.10;88.60;;;;;;5071997;28;20023;-79
2023/08/04 05:34:41;;;;;;;6.70;1.20;;;19.00;88.70;;;;;;5070278;28;20386;-80
2023/08/04 05:37:07;;;;;;;2.42;0.90;;;19.10;88.80;;;;;;5070473;28;20031;-80
2023/08/04 05:39:33;;;;;;;1.92;1.10;;;19.10;88.80;;;;;;5070845;28;20013;-80
2023/08/04 05:41:59;;;;;;;4.43;1.50;;;19.10;88.90;;;;;;5070617;28;20092;-80
2023/08/04 05:44:24;;;;;;;4.57;1.27;;;19.10;88.90;;;;;;5073284;28;20094;-80
2023/08/04 05:46:50;;;;;;;4.95;1.50;;;19.10;89.00;;;;;;5071320;28;20097;-80
2023/08/04 05:49:15;;;;;;;2.53;1.38;;;19.10;89.00;;;;;;5075419;28;20029;-80
2023/08/04 05:51:41;;;;;;;3.20;1.40;;;19.10;89.00;;;;;;5072605;28;20033;-80
2023/08/04 05:54:07;;;;;;;2.47;1.23;;;19.10;89.10;;;;;;5076338;28;20059;-80
2023/08/04 05:56:32;;;;;;;4.18;1.40;;;19.10;89.10;;;;;;5066759;28;20031;-80
2023/08/04 05:58:58;;;;;;;2.40;1.40;;;19.10;89.20;;;;;;5073505;28;20028;-80
2023/08/04 06:01:27;;;;;;;1.20;1.10;;;19.10;89.20;;;;;;5065536;28;20089;-81
2023/08/04 06:03:52;;;;;;;2.92;1.50;;;19.10;89.30;;;;;;5070693;28;20111;-80
2023/08/04 06:06:18;;;;;;;1.70;1.08;;;19.10;89.30;;;;;;5075773;28;20159;-80
2023/08/04 06:08:43;;;;;;;2.70;1.40;;;19.10;89.30;;;;;;5072024;28;20032;-80
2023/08/04 06:11:09;;;;;;;5.18;1.27;;;19.10;90.00;;;;;;5069345;28;20036;-80
2023/08/04 06:13:36;;;;;;;5.00;1.58;;;19.10;89.40;;;;;;5073716;28;20025;-80
2023/08/04 06:16:01;;;;;;;4.32;0.90;;;19.10;89.50;;;;;;5069595;28;20020;-75
2023/08/04 06:18:27;;;;;;;4.55;1.15;;;19.10;89.80;;;;;;5069871;28;20016;-80
2023/08/04 06:20:53;;;;;;;2.13;0.88;;;19.00;90.00;;;;;;5068053;28;20029;-80
2023/08/04 06:23:19;;;;;;;2.50;1.00;;;19.00;90.00;;;;;;5073826;28;20435;-80
2023/08/04 06:25:44;;;;;;;6.90;1.23;;;19.10;90.00;;;;;;5067292;28;20029;-80
2023/08/04 06:28:10;;;;;;;0.90;0.90;;;19.00;89.90;;;;;;5072376;28;20089;-80
2023/08/04 06:30:36;;;;;;;2.85;1.30;;;19.10;90.00;;;;;;5070009;28;20596;-80
2023/08/04 06:33:02;;;;;;;3.67;1.20;;;19.10;89.90;;;;;;5071903;28;20028;-81
2023/08/04 06:35:27;;;;;;;4.32;1.00;;;19.10;90.00;;;;;;5069303;28;20066;-81
2023/08/04 06:37:53;;;;;;;2.28;1.00;;;19.10;90.00;;;;;;5101014;27;20108;-80
2023/08/04 06:40:18;;;;;;;1.60;1.00;;;19.10;90.00;;;;;;5067070;28;20025;-80
2023/08/04 06:42:44;;;;;;;1.92;0.90;;;19.10;90.00;;;;;;5062590;28;20056;-80
2023/08/04 06:45:10;;;;;;;6.05;1.08;;;19.10;90.00;;;;;;5070712;28;20020;-80
2023/08/04 06:47:35;;;;;;;4.63;1.52;;;19.10;90.00;;;;;;5072201;28;20020;-81
2023/08/04 06:50:03;;;;;;;3.67;1.00;;;19.10;90.00;;;;;;5068705;28;20032;-81
2023/08/04 06:52:30;;;;;;;4.35;0.75;;;19.10;90.10;;;;;;5064224;28;20020;-81
2023/08/04 06:54:56;;;;;;;1.88;1.05;;;19.10;90.10;;;;;;5066048;28;20025;-80
2023/08/04 06:57:21;;;;;;;2.67;0.93;;;19.10;90.10;;;;;;5067898;28;20095;-80
2023/08/04 06:59:47;;;;;;;3.25;1.00;;;19.10;90.20;;;;;;5067502;28;20028;-80
2023/08/04 07:02:13;;;;;;;1.63;1.02;;;19.10;90.20;;;;;;5072931;28;20026;-80
2023/08/04 07:04:38;;;;;;;2.25;0.90;;;19.10;90.20;;;;;;5070104;28;20028;-81
2023/08/04 07:07:04;;;;;;;1.15;0.70;;;19.10;90.20;;;;;;5066536;28;20028;-81
2023/08/04 07:09:30;;;;;;;4.43;0.98;;;19.10;90.30;;;;;;5070845;28;20393;-81
2023/08/04 07:11:56;;;;;;;1.23;0.80;;;19.10;90.20;;;;;;5065041;28;20025;-81
2023/08/04 07:14:21;;;;;;;1.25;0.80;;;19.20;90.30;;;;;;5065864;28;20127;-81
2023/08/04 07:16:47;;;;;;;2.95;1.27;;;19.10;90.30;;;;;;5063558;28;20382;-80
2023/08/04 07:19:16;;;;;;;5.30;1.02;;;19.10;90.40;;;;;;5063106;28;20070;-81
2023/08/04 07:21:43;;;;;;;1.05;0.75;;;19.10;90.40;;;;;;5070593;28;20025;-81
2023/08/04 07:24:09;;;;;;;2.13;0.98;;;19.10;90.40;;;;;;5061876;28;20622;-80
2023/08/04 07:26:35;;;;;;;3.15;0.77;;;19.20;90.40;;;;;;5064244;28;20107;-80
2023/08/04 07:29:01;;;;;;;3.92;0.90;;;19.20;90.40;;;;;;5063677;28;20036;-81
2023/08/04 07:31:27;;;;;;;1.20;1.00;;;19.20;90.40;;;;;;5063311;28;20488;-81
2023/08/04 07:33:52;;;;;;;1.02;0.90;;;19.20;90.50;;;;;;5058477;28;20107;-80
2023/08/04 07:36:18;;;;;;;3.88;1.25;;;19.20;90.40;;;;;;5068600;28;20020;-81
2023/08/04 07:38:43;;;;;;;1.77;0.88;;;19.20;90.40;;;;;;5063574;28;20052;-81
2023/08/04 07:41:17;;;;;;;2.72;1.00;;;19.20;90.30;;;;;;5070083;28;20021;-80
2023/08/04 07:43:42;;;;;;;6.72;1.40;;;19.20;90.30;;;;;;5061124;28;20064;-86
2023/08/04 07:46:17;;;;;;;4.75;1.10;;;19.20;90.80;;;;;;5061138;28;20150;-85
2023/08/04 07:48:43;;;;;;;4.13;1.00;;;19.10;91.50;;;;;;5059073;28;20036;-84
2023/08/04 07:51:08;;;;;;;0.70;0.70;;;19.00;91.60;;;;;;5058129;28;20028;-85
2023/08/04 07:53:34;;;;;;;0.80;0.80;;;19.00;91.60;;;;;;5065287;28;20127;-83
2023/08/04 07:55:59;;;;;;;2.08;1.00;;;19.00;91.60;;;;;;5058805;28;20029;-84
2023/08/04 07:58:25;;;;;;;2.72;1.20;;;18.90;91.50;;;;;;5097428;27;20450;-85
2023/08/04 08:00:51;;;;;;;6.22;1.00;;;18.90;91.80;;;;;;5059413;28;20017;-85
2023/08/04 08:03:16;;;;;;;3.63;1.20;;;19.00;92.00;;;;;;5061162;28;20021;-85
2023/08/04 08:05:42;;;;;;;1.83;0.90;;;18.90;92.00;;;;;;5056966;28;20102;-85
2023/08/04 08:08:08;;;;;;;1.58;1.02;;;18.90;92.10;;;;;;5063087;28;20047;-85
2023/08/04 08:10:34;;;;;;;2.60;0.75;;;19.00;92.30;;;;;;5097311;27;20473;-84
2023/08/04 08:13:01;;;;;;;3.33;0.75;;;19.00;92.20;;;;;;5061175;28;20104;-86
2023/08/04 08:15:27;;;;;;;1.15;0.90;;;19.00;92.20;;;;;;5055520;28;20398;-86
2023/08/04 08:17:52;;;;;;;5.45;1.40;;;19.00;92.10;;;;;;5067364;28;20027;-84
2023/08/04 08:20:18;;;;;;;1.10;0.90;;;19.00;92.10;;;;;;5060969;28;20039;-83
2023/08/04 08:22:44;;;;;;;1.92;0.70;;;19.00;91.90;;;;;;5057903;28;20470;-84
2023/08/04 08:25:12;;;;;;;6.70;1.00;;;19.00;91.90;;;;;;5062809;28;20069;-86
2023/08/04 08:27:38;;;;;;;1.10;1.00;;;18.90;92.00;;;;;;5101410;27;20024;-85
2023/08/04 08:30:04;;;;;;;1.15;0.60;;;19.00;92.60;;;;;;5062139;28;20039;-85
2023/08/04 08:32:30;;;;;;;3.28;1.00;;;19.00;92.10;;;;;;5063191;28;20021;-86
2023/08/04 08:34:55;;;;;;;1.50;1.02;;;19.00;92.00;;;;;;5060371;28;20041;-86
2023/08/04 08:37:21;;;;;;;0.93;0.88;;;19.00;92.10;;;;;;5063414;28;20461;-85
2023/08/04 08:39:46;;;;;;;2.45;0.80;;;19.00;92.30;;;;;;5056293;28;20040;-85
2023/08/04 08:42:12;;;;;;;1.65;1.20;;;19.00;92.20;;;;;;5063813;28;20024;-85
2023/08/04 08:44:37;;;;;;;1.02;0.90;;;19.10;92.30;;;;;;5097230;27;20025;-85
2023/08/04 08:47:03;;;;;;;1.25;1.10;;;19.10;92.60;;;;;;5063723;28;20545;-86
2023/08/04 08:49:35;;;;;;;1.27;0.95;;;19.10;92.30;;;;;;5098383;28;20032;-86
2023/08/04 08:52:03;;;;;;;1.40;0.75;;;19.20;92.10;;;;;;5091452;28;20056;-86
2023/08/04 08:54:29;;;;;;;0.70;0.70;;;19.20;92.10;;;;;;5057334;28;20466;-82
2023/08/04 08:56:54;;;;;;;0.68;0.68;;;19.20;91.80;;;;;;5062777;28;20053;-85
2023/08/04 08:59:21;;;;;;;1.33;0.98;;;19.20;91.70;;;;;;5097137;27;20079;-85
2023/08/04 09:01:46;;;;;;;3.03;0.93;;;19.20;91.80;;;;;;5064004;28;20418;-84
2023/08/04 09:04:13;;;;;;;2.03;0.90;;;19.20;91.90;;;;;;5064820;28;20056;-85
2023/08/04 09:06:39;;;;;;;2.38;0.73;;;19.20;91.70;;;;;;5069495;28;20124;-84
2023/08/04 09:09:05;;;;;;;1.02;0.70;;;19.20;91.50;;;;;;5094327;27;20626;-85
2023/08/04 09:11:32;;;;;;;0.50;0.50;;;19.30;91.40;;;;;;5061784;28;20080;-85
2023/08/04 09:14:00;;;;;;;1.38;0.70;;;19.30;91.00;;;;;;5096264;28;20118;-84
2023/08/04 09:16:32;;;;;;;0.55;0.43;;;19.30;90.60;;;;;;5061158;28;20032;-85
2023/08/04 09:19:04;;;;;;;6.25;0.80;;;19.30;90.70;;;;;;5063625;28;20087;-84
2023/08/04 09:21:30;;;;;;;0.65;0.65;;;19.30;90.30;;;;;;5063296;28;20036;-85
2023/08/04 09:23:56;;;;;;;2.50;0.80;;;19.30;91.20;;;;;;5095006;28;20035;-85
2023/08/04 09:26:22;;;;;;;1.35;0.70;;;19.30;91.30;;;;;;5067897;28;20032;-85
2023/08/04 09:29:04;;;;;;;1.23;0.73;;;19.30;90.80;;;;;;5063289;28;20111;-84
2023/08/04 09:31:41;;;;;;;1.02;0.60;;;19.30;91.00;;;;;;5064905;28;20089;-84
2023/08/04 09:34:08;;;;;;;2.08;0.73;;;19.30;90.50;;;;;;5090841;28;20041;-83
2023/08/04 09:36:49;;;;;;;1.35;0.90;;;19.30;90.40;;;;;;5069944;28;20487;-84
2023/08/04 09:39:15;;;;;;;4.47;0.80;;;19.30;90.20;;;;;;5062478;28;20021;-84
2023/08/04 09:41:46;;;;;;;3.28;1.23;;;19.30;90.40;;;;;;5071482;28;20028;-84
2023/08/04 09:44:14;;;;;;;0.50;0.50;;;19.40;90.50;;;;;;5060615;28;20150;-83
2023/08/04 09:46:52;;;;;;;1.25;1.10;;;19.40;90.50;;;;;;5096563;28;20127;-84
2023/08/04 09:49:22;;;;;;;0.82;0.57;;;19.40;89.90;;;;;;5065087;28;20056;-84
2023/08/04 09:51:50;;;;;;;1.48;0.73;;;19.40;90.30;;;;;;5099734;28;20039;-84
2023/08/04 09:54:16;;;;;;;3.10;0.70;;;19.40;90.00;;;;;;5066661;28;20031;-84
2023/08/04 09:56:42;;;;;;;1.13;1.00;;;19.40;89.90;;;;;;5065942;28;20021;-84
2023/08/04 09:59:08;;;;;;;3.63;1.10;;;19.40;89.20;;;;;;5063138;28;20021;-83
2023/08/04 10:01:34;;;;;;;0.73;0.57;;;19.30;88.70;;;;;;5096217;28;20056;-83
2023/08/04 10:03:59;;;;;;;0.68;0.50;;;19.30;89.30;;;;;;5065618;28;20024;-83
2023/08/04 10:06:26;;;;;;;0.90;0.80;;;19.40;89.50;;;;;;5098366;28;20658;-85
2023/08/04 10:08:55;;;;;;;0.60;0.60;;;19.30;89.30;;;;;;5065480;28;20040;-84
2023/08/04 10:11:22;;;;;;;3.75;0.82;;;19.30;89.40;;;;;;5062420;28;20025;-86
2023/08/04 10:13:57;;;;;;;0.70;0.70;;;19.30;88.80;;;;;;5068452;28;20048;-83
2023/08/04 10:16:30;;;;;;;1.75;0.60;;;19.40;87.30;;;;;;5060230;28;20382;-83
2023/08/04 10:19:00;;;;;;;2.05;0.70;;;19.40;85.70;;;;;;5059843;28;20466;-84
2023/08/04 10:21:30;;;;;;;4.32;0.98;;;19.30;87.00;;;;;;5061292;28;20036;-85
2023/08/04 10:23:58;;;;;;;4.93;0.60;;;19.40;87.30;;;;;;5058929;28;20526;-85
2023/08/04 10:26:24;;;;;;;4.32;1.23;;;19.50;86.50;;;;;;5068949;28;20566;-85
2023/08/04 10:29:04;;;;;;;0.50;0.50;;;19.50;86.90;;;;;;5069244;28;20077;-85
2023/08/04 10:31:55;;;;;;;2.63;0.70;;;19.60;87.90;;;;;;5079091;28;20035;-86
2023/08/04 10:34:25;;;;;;;3.15;0.82;;;19.70;87.60;;;;;;5060977;28;20029;-84
2023/08/04 10:37:04;;;;;;;2.28;0.70;;;19.70;87.60;;;;;;5070057;28;20029;-86
2023/08/04 10:39:40;;;;;;;2.97;0.80;;;19.80;87.50;;;;;;5070552;28;20737;-79
2023/08/04 10:42:23;;;;;;;9.00;0.95;;;19.80;87.60;;;;;;5073275;28;20087;-79
2023/08/04 10:44:50;;;;;;;1.67;1.13;;;19.70;87.90;;;;;;5072004;28;20024;-80
2023/08/04 10:47:48;;;;;;;1.65;0.77;;;19.70;88.30;;;;;;5062231;28;20108;-80
2023/08/04 10:50:14;;;;;;;1.95;0.70;;;19.60;88.70;;;;;;5059964;28;20041;-80
2023/08/04 10:52:41;;;;;;;0.90;0.68;;;19.60;89.10;;;;;;5061449;28;20033;-79
2023/08/04 10:55:09;;;;;;;0.82;0.82;;;19.60;90.00;;;;;;5067723;28;20473;-81
2023/08/04 10:57:37;;;;;;;0.55;0.52;;;19.60;89.30;;;;;;5069417;28;20742;-81
2023/08/04 11:00:09;;;;;;;0.60;0.60;;;19.60;89.40;;;;;;5064146;28;20027;-78
2023/08/04 11:02:36;;;;;;;0.60;0.60;;;19.60;89.50;;;;;;5071093;28;20021;-81
2023/08/04 11:05:03;;;;;;;2.53;0.80;;;19.60;89.60;;;;;;5061821;28;20382;-81
2023/08/04 11:07:29;;;;;;;1.27;0.70;;;19.60;89.60;;;;;;5076639;28;20028;-80
2023/08/04 11:09:55;;;;;;;0.73;0.70;;;19.60;89.70;;;;;;5064663;28;20481;-81
2023/08/04 11:12:21;;;;;;;1.92;0.88;;;19.60;89.70;;;;;;5071270;28;20017;-81
2023/08/04 11:14:49;;;;;;;4.93;0.95;;;19.70;89.80;;;;;;5102732;27;20062;-80
2023/08/04 11:17:16;;;;;;;7.50;1.25;;;19.60;89.90;;;;;;5097328;27;20021;-79
2023/08/04 11:19:49;;;;;;;2.15;0.90;;;19.60;89.90;;;;;;5068647;28;20739;-80
2023/08/04 11:22:17;;;;;;;1.23;0.75;;;19.60;90.00;;;;;;5064655;28;20104;-80
2023/08/04 11:24:43;;;;;;;1.42;1.08;;;19.60;90.00;;;;;;5067454;28;20377;-80
2023/08/04 11:27:13;;;;;;;1.85;0.75;;;19.60;90.00;;;;;;5069633;28;20031;-80
2023/08/04 11:29:39;;;;;;;4.32;0.70;;;19.60;90.10;;;;;;5071746;28;20040;-80
2023/08/04 11:32:17;;;;;;;0.77;0.70;;;19.60;90.10;;;;;;5066381;28;20559;-80
2023/08/04 11:34:42;;;;;;;1.02;0.60;;;19.60;90.10;;;;;;5068344;28;20044;-80
2023/08/04 11:37:08;;;;;;;5.70;0.77;;;19.60;90.10;;;;;;5068561;28;20021;-81
2023/08/04 11:39:35;;;;;;;1.90;1.00;;;19.60;90.10;;;;;;5071961;28;20035;-80
2023/08/04 11:42:02;;;;;;;1.80;0.80;;;19.50;90.10;;;;;;5066028;28;20179;-80
2023/08/04 11:44:28;;;;;;;1.85;0.70;;;19.50;90.10;;;;;;5066826;28;20036;-80
2023/08/04 11:46:53;;;;;;;2.28;0.85;;;19.50;90.10;;;;;;5072358;28;20485;-80
2023/08/04 11:49:19;;;;;;;1.65;0.77;;;19.50;90.10;;;;;;5068227;28;20032;-80
2023/08/04 11:51:45;;;;;;;6.43;1.48;;;19.50;90.20;;;;;;5066924;28;20033;-81
2023/08/04 11:54:19;;;;;;;1.20;0.60;;;19.50;90.20;;;;;;5069897;28;20029;-81
2023/08/04 11:56:44;;;;;;;2.38;0.68;;;19.60;90.20;;;;;;5099430;27;20020;-82
2023/08/04 11:59:11;;;;;;;5.18;1.10;;;19.60;90.20;;;;;;5069437;28;20417;-83
2023/08/04 12:01:37;;;;;;;3.63;1.08;;;19.60;90.20;;;;;;5070795;28;20088;-82
2023/08/04 12:04:22;;;;;;;1.02;0.93;;;19.60;90.20;;;;;;5068666;28;20021;-82
2023/08/04 12:06:59;;;;;;;2.60;1.05;;;19.50;90.20;;;;;;5100312;27;20458;-82
2023/08/04 12:09:25;;;;;;;0.93;0.93;;;19.60;90.60;;;;;;5065673;28;20473;-82
2023/08/04 12:11:52;;;;;;;2.28;1.10;;;19.60;90.70;;;;;;5068851;28;20027;-82
2023/08/04 12:14:19;;;;;;;1.52;0.90;;;19.60;90.60;;;;;;5066246;28;20029;-82
2023/08/04 12:16:58;;;;;;;4.53;1.10;;;19.60;90.50;;;;;;5064823;28;20036;-83
2023/08/04 12:19:26;;;;;;;3.67;0.80;;;19.60;90.50;;;;;;5070396;28;20049;-83
2023/08/04 12:21:54;;;;;;;4.80;1.13;;;19.60;90.50;;;;;;5071201;28;20384;-82
2023/08/04 12:24:20;;;;;;;2.95;1.05;;;19.60;90.50;;;;;;5067142;28;20062;-82
2023/08/04 12:26:46;;;;;;;1.90;0.90;;;19.60;90.50;;;;;;5099817;27;20086;-83
2023/08/04 12:29:12;;;;;;;1.75;1.00;;;19.60;90.50;;;;;;5097934;27;20036;-82
2023/08/04 12:31:39;;;;;;;2.67;1.00;;;19.60;90.50;;;;;;5061627;28;20024;-81
2023/08/04 12:34:06;;;;;;;1.38;0.98;;;19.60;90.50;;;;;;5069267;28;20060;-82
2023/08/04 12:36:34;;;;;;;0.75;0.68;;;19.60;90.60;;;;;;5062407;28;20107;-82
2023/08/04 12:38:59;;;;;;;3.05;0.80;;;19.60;90.60;;;;;;5067825;28;20048;-82
2023/08/04 12:41:25;;;;;;;1.02;0.73;;;19.60;90.60;;;;;;5072108;28;20059;-82
2023/08/04 12:43:51;;;;;;;1.73;1.00;;;19.60;90.60;;;;;;5067926;28;20124;-82
2023/08/04 12:46:17;;;;;;;2.28;0.80;;;19.60;90.60;;;;;;5093283;27;20028;-82